createdAt,value
2022-10-09T00:00:29.078Z,11.30
2022-10-09T00:02:30.776Z,11.30
2022-10-09T00:04:32.486Z,11.30
2022-10-09T00:06:34.539Z,11.20
2022-10-09T00:08:36.810Z,11.30
2022-10-09T00:10:44.567Z,11.20
2022-10-09T00:12:46.905Z,11.20
2022-10-09T00:14:48.797Z,11.20
2022-10-09T00:16:50.468Z,11.30
2022-10-09T00:18:52.548Z,11.20
2022-10-09T00:20:54.165Z,11.10
2022-10-09T00:22:55.829Z,11.10
2022-10-09T00:24:57.741Z,11.10
2022-10-09T00:26:59.434Z,11.10
2022-10-09T00:29:01.147Z,11.00
2022-10-09T00:31:06.448Z,11.00
2022-10-09T00:33:08.136Z,11.00
2022-10-09T00:35:09.781Z,11.00
2022-10-09T00:37:11.435Z,10.90
2022-10-09T00:39:13.134Z,10.90
2022-10-09T00:41:16.452Z,10.90
2022-10-09T00:43:19.716Z,10.90
2022-10-09T00:45:21.658Z,10.80
2022-10-09T00:47:23.252Z,10.80
2022-10-09T00:49:26.943Z,10.80
2022-10-09T00:51:29.286Z,10.80
2022-10-09T00:53:31.016Z,10.80
2022-10-09T00:55:34.597Z,10.70
2022-10-09T00:57:37.644Z,10.70
2022-10-09T00:59:39.784Z,10.70
2022-10-09T01:01:41.722Z,10.70
2022-10-09T01:03:43.522Z,10.60
2022-10-09T01:06:10.531Z,10.60
2022-10-09T01:08:19.944Z,10.60
2022-10-09T01:10:32.779Z,10.50
2022-10-09T01:12:40.731Z,10.50
2022-10-09T01:14:47.209Z,10.50
2022-10-09T01:17:18.151Z,10.40
2022-10-09T01:19:32.059Z,10.40
2022-10-09T01:21:52.255Z,10.40
2022-10-09T01:23:59.986Z,10.30
2022-10-09T01:26:17.011Z,10.30
2022-10-09T01:28:19.947Z,10.20
2022-10-09T01:30:21.836Z,10.20
2022-10-09T01:32:25.100Z,10.20
2022-10-09T01:34:27.558Z,10.10
2022-10-09T01:36:32.862Z,10.10
2022-10-09T01:38:34.738Z,10.10
2022-10-09T01:40:36.898Z,10.00
2022-10-09T01:42:38.855Z,10.00
2022-10-09T01:44:40.834Z,10.00
2022-10-09T01:46:44.581Z,9.90
2022-10-09T01:48:49.000Z,9.90
2022-10-09T01:51:00.025Z,9.90
2022-10-09T01:53:07.484Z,9.90
2022-10-09T01:55:28.595Z,9.90
2022-10-09T01:57:53.296Z,9.90
2022-10-09T01:59:56.285Z,9.80
2022-10-09T02:01:59.547Z,9.80
2022-10-09T02:04:02.738Z,9.80
2022-10-09T02:06:05.820Z,9.70
2022-10-09T02:08:08.193Z,9.70
2022-10-09T02:10:10.468Z,9.70
2022-10-09T02:12:12.792Z,9.70
2022-10-09T02:14:14.609Z,9.70
2022-10-09T02:16:16.658Z,9.70
2022-10-09T02:18:22.758Z,9.60
2022-10-09T02:20:33.078Z,9.60
2022-10-09T02:22:36.103Z,9.60
2022-10-09T02:24:38.865Z,9.60
2022-10-09T02:26:41.163Z,9.60
2022-10-09T02:28:45.992Z,9.60
2022-10-09T02:30:51.928Z,9.50
2022-10-09T02:32:54.015Z,9.50
2022-10-09T02:34:55.909Z,9.50
2022-10-09T02:36:57.512Z,9.50
2022-10-09T02:38:59.130Z,9.50
2022-10-09T02:41:01.437Z,9.40
2022-10-09T02:43:03.077Z,9.40
2022-10-09T02:45:04.972Z,9.40
2022-10-09T02:47:06.679Z,9.40
2022-10-09T02:49:08.328Z,9.40
2022-10-09T02:51:09.956Z,9.40
2022-10-09T02:53:11.633Z,9.30
2022-10-09T02:55:13.270Z,9.30
2022-10-09T02:57:14.910Z,9.30
2022-10-09T02:59:16.612Z,9.30
2022-10-09T03:01:18.692Z,9.30
2022-10-09T03:03:20.649Z,9.30
2022-10-09T03:05:22.304Z,9.20
2022-10-09T03:07:24.007Z,9.20
2022-10-09T03:09:28.193Z,9.20
2022-10-09T03:11:31.957Z,9.20
2022-10-09T03:13:33.684Z,9.20
2022-10-09T03:15:36.021Z,9.20
2022-10-09T03:17:37.779Z,9.20
2022-10-09T03:19:39.384Z,9.20
2022-10-09T03:21:41.051Z,9.20
2022-10-09T03:23:42.895Z,9.20
2022-10-09T03:25:44.513Z,9.20
2022-10-09T03:27:46.136Z,9.10
2022-10-09T03:29:47.803Z,9.10
2022-10-09T03:31:52.832Z,9.20
2022-10-09T03:33:54.690Z,9.10
2022-10-09T03:35:56.316Z,9.10
2022-10-09T03:37:57.966Z,9.10
2022-10-09T03:39:59.559Z,9.10
2022-10-09T03:42:01.205Z,9.10
2022-10-09T03:44:02.854Z,9.10
2022-10-09T03:46:08.445Z,9.10
2022-10-09T03:48:11.289Z,9.00
2022-10-09T03:50:12.893Z,9.00
2022-10-09T03:52:14.578Z,9.00
2022-10-09T03:54:16.225Z,8.90
2022-10-09T03:56:17.887Z,8.90
2022-10-09T03:58:19.489Z,8.90
2022-10-09T04:00:21.213Z,8.90
2022-10-09T04:02:22.932Z,8.90
2022-10-09T04:04:24.612Z,8.90
2022-10-09T04:06:26.263Z,8.80
2022-10-09T04:08:28.810Z,8.80
2022-10-09T04:10:30.432Z,8.80
2022-10-09T04:12:32.092Z,8.80
2022-10-09T04:14:33.707Z,8.70
2022-10-09T04:16:35.435Z,8.70
2022-10-09T04:18:37.111Z,8.70
2022-10-09T04:20:38.715Z,8.70
2022-10-09T04:22:40.329Z,8.70
2022-10-09T04:24:41.962Z,8.70
2022-10-09T04:26:43.642Z,8.60
2022-10-09T04:28:45.300Z,8.60
2022-10-09T04:30:47.014Z,8.60
2022-10-09T04:32:48.945Z,8.60
2022-10-09T04:34:50.758Z,8.60
2022-10-09T04:36:52.417Z,8.60
2022-10-09T04:38:54.262Z,8.50
2022-10-09T04:41:02.999Z,8.50
2022-10-09T04:43:04.586Z,8.50
2022-10-09T04:45:06.419Z,8.50
2022-10-09T04:47:11.129Z,8.50
2022-10-09T04:49:14.213Z,8.40
2022-10-09T04:51:16.614Z,8.50
2022-10-09T04:53:18.249Z,8.40
2022-10-09T04:55:19.874Z,8.40
2022-10-09T04:57:21.695Z,8.40
2022-10-09T04:59:23.356Z,8.40
2022-10-09T05:01:26.251Z,8.30
2022-10-09T05:03:27.914Z,8.30
2022-10-09T05:05:31.505Z,8.30
2022-10-09T05:07:33.186Z,8.30
2022-10-09T05:09:34.836Z,8.30
2022-10-09T05:11:41.722Z,8.20
2022-10-09T05:13:45.969Z,8.30
2022-10-09T05:15:47.644Z,8.20
2022-10-09T05:17:49.361Z,8.20
2022-10-09T05:19:50.981Z,8.20
2022-10-09T05:21:52.635Z,8.20
2022-10-09T05:23:54.821Z,8.20
2022-10-09T05:26:01.385Z,8.20
2022-10-09T05:28:04.298Z,8.20
2022-10-09T05:30:06.790Z,8.20
2022-10-09T05:32:08.492Z,8.20
2022-10-09T05:34:10.439Z,8.10
2022-10-09T05:36:12.143Z,8.20
2022-10-09T05:38:13.839Z,8.10
2022-10-09T05:40:15.467Z,8.10
2022-10-09T05:42:17.116Z,8.10
2022-10-09T05:44:18.768Z,8.10
2022-10-09T05:46:23.441Z,8.20
2022-10-09T05:48:25.079Z,8.20
2022-10-09T05:50:28.522Z,8.10
2022-10-09T05:52:30.240Z,8.20
2022-10-09T05:54:31.929Z,8.20
2022-10-09T05:56:37.423Z,8.20
2022-10-09T05:58:39.057Z,8.20
2022-10-09T06:00:40.743Z,8.20
2022-10-09T06:02:42.512Z,8.20
2022-10-09T06:04:44.329Z,8.20
2022-10-09T06:06:48.409Z,8.20
2022-10-09T06:08:50.057Z,8.20
2022-10-09T06:10:51.658Z,8.30
2022-10-09T06:12:53.335Z,8.30
2022-10-09T06:14:54.965Z,8.30
2022-10-09T06:16:58.441Z,8.30
2022-10-09T06:19:00.709Z,8.30
2022-10-09T06:21:02.940Z,8.30
2022-10-09T06:23:04.578Z,8.40
2022-10-09T06:25:06.505Z,8.40
2022-10-09T06:27:08.125Z,8.40
2022-10-09T06:29:09.789Z,8.50
2022-10-09T06:31:13.443Z,8.50
2022-10-09T06:33:15.611Z,8.50
2022-10-09T06:35:17.314Z,8.50
2022-10-09T06:37:19.012Z,8.50
2022-10-09T06:39:20.924Z,8.50
2022-10-09T06:41:25.998Z,8.60
2022-10-09T06:43:27.640Z,8.60
2022-10-09T06:45:29.318Z,8.70
2022-10-09T06:47:31.039Z,8.70
2022-10-09T06:49:32.697Z,8.70
2022-10-09T06:51:34.793Z,8.80
2022-10-09T06:53:40.507Z,8.80
2022-10-09T06:55:51.070Z,8.80
2022-10-09T06:57:52.678Z,8.90
2022-10-09T06:59:54.318Z,8.90
2022-10-09T07:01:57.088Z,8.90
2022-10-09T07:04:00.088Z,9.00
2022-10-09T07:06:08.961Z,9.00
2022-10-09T07:08:10.629Z,9.10
2022-10-09T07:10:12.274Z,9.00
2022-10-09T07:12:14.018Z,9.20
2022-10-09T07:14:18.403Z,9.20
2022-10-09T07:16:21.967Z,9.30
2022-10-09T07:18:23.668Z,9.30
2022-10-09T07:20:25.323Z,9.40
2022-10-09T07:22:27.287Z,9.40
2022-10-09T07:24:29.039Z,9.50
2022-10-09T07:26:31.834Z,9.50
2022-10-09T07:28:33.558Z,9.60
2022-10-09T07:30:38.623Z,9.60
2022-10-09T07:32:40.340Z,9.70
2022-10-09T07:34:42.107Z,9.70
2022-10-09T07:36:43.830Z,9.70
2022-10-09T07:38:49.591Z,9.80
2022-10-09T07:40:52.033Z,9.80
2022-10-09T07:42:54.589Z,9.80
2022-10-09T07:44:56.253Z,9.90
2022-10-09T07:46:57.881Z,10.00
2022-10-09T07:48:59.560Z,10.00
2022-10-09T07:51:11.659Z,10.10
2022-10-09T07:53:13.258Z,10.10
2022-10-09T07:55:14.988Z,10.20
2022-10-09T07:57:16.665Z,10.30
2022-10-09T07:59:18.328Z,10.40
2022-10-09T08:01:20.836Z,10.50
2022-10-09T08:03:22.551Z,10.50
2022-10-09T08:05:24.312Z,10.60
2022-10-09T08:07:25.919Z,10.70
2022-10-09T08:09:27.581Z,10.80
2022-10-09T08:11:29.895Z,10.90
2022-10-09T08:13:31.566Z,10.90
2022-10-09T08:15:33.251Z,11.00
2022-10-09T08:17:34.963Z,11.10
2022-10-09T08:19:36.580Z,11.10
2022-10-09T08:21:38.378Z,11.20
2022-10-09T08:23:39.974Z,11.20
2022-10-09T08:25:41.619Z,11.30
2022-10-09T08:27:43.245Z,11.30
2022-10-09T08:29:44.856Z,11.40
2022-10-09T08:31:46.710Z,11.40
2022-10-09T08:33:51.183Z,11.40
2022-10-09T08:35:53.487Z,11.50
2022-10-09T08:37:55.560Z,11.60
2022-10-09T08:39:57.710Z,11.60
2022-10-09T08:42:01.899Z,11.60
2022-10-09T08:44:06.077Z,11.70
2022-10-09T08:46:12.458Z,11.70
2022-10-09T08:48:20.615Z,11.70
2022-10-09T08:50:25.200Z,11.80
2022-10-09T08:52:38.362Z,11.80
2022-10-09T08:54:39.996Z,11.80
2022-10-09T08:56:41.655Z,11.90
2022-10-09T08:58:44.252Z,11.90
2022-10-09T09:00:48.766Z,12.00
2022-10-09T09:03:09.412Z,11.90
2022-10-09T09:05:14.079Z,12.00
2022-10-09T09:07:29.921Z,12.10
2022-10-09T09:09:40.776Z,12.10
2022-10-09T09:11:42.408Z,12.20
2022-10-09T09:13:57.215Z,12.30
2022-10-09T09:16:34.479Z,12.30
2022-10-09T09:18:49.871Z,12.40
2022-10-09T09:20:51.454Z,12.40
2022-10-09T09:22:53.286Z,12.50
2022-10-09T09:24:56.122Z,12.50
2022-10-09T09:27:01.671Z,12.50
2022-10-09T09:29:05.003Z,12.60
2022-10-09T09:31:08.748Z,12.60
2022-10-09T09:33:36.249Z,12.70
2022-10-09T09:35:49.495Z,12.70
2022-10-09T09:37:51.200Z,12.80
2022-10-09T09:42:15.911Z,12.90
2022-10-09T09:44:17.575Z,13.00
2022-10-09T09:46:21.708Z,13.00
2022-10-09T09:48:32.796Z,13.00
2022-10-09T09:51:10.064Z,13.10
2022-10-09T09:53:02.259Z,13.10
2022-10-09T09:55:04.687Z,13.10
2022-10-09T09:57:15.872Z,13.20
2022-10-09T09:59:39.974Z,13.20
2022-10-09T10:01:41.903Z,13.30
2022-10-09T10:03:50.026Z,13.30
2022-10-09T10:05:51.885Z,13.30
2022-10-09T10:07:53.582Z,13.40
2022-10-09T10:10:14.674Z,13.40
2022-10-09T10:12:16.488Z,13.40
2022-10-09T10:14:18.166Z,13.40
2022-10-09T10:16:27.432Z,13.40
2022-10-09T10:18:32.339Z,13.50
2022-10-09T10:20:42.416Z,13.50
2022-10-09T10:22:51.358Z,13.50
2022-10-09T10:24:56.092Z,13.60
2022-10-09T10:27:06.648Z,13.60
2022-10-09T10:29:19.820Z,13.70
2022-10-09T10:31:47.732Z,13.70
2022-10-09T10:33:52.157Z,13.80
2022-10-09T10:35:55.511Z,13.90
2022-10-09T10:37:57.113Z,13.80
2022-10-09T10:40:20.009Z,13.90
2022-10-09T10:42:24.552Z,13.90
2022-10-09T10:44:33.043Z,13.90
2022-10-09T10:46:39.091Z,13.90
2022-10-09T10:48:42.681Z,14.00
2022-10-09T10:50:53.601Z,14.00
2022-10-09T10:53:03.570Z,14.00
2022-10-09T10:55:30.930Z,14.10
2022-10-09T10:57:55.585Z,14.10
2022-10-09T11:00:07.762Z,14.10
2022-10-09T11:02:09.349Z,14.10
2022-10-09T11:04:23.151Z,14.10
2022-10-09T11:06:39.021Z,14.10
2022-10-09T11:08:43.680Z,14.10
2022-10-09T11:13:19.788Z,14.10
2022-10-09T11:15:21.429Z,14.10
2022-10-09T11:17:41.860Z,14.20
2022-10-09T11:19:45.601Z,14.20
2022-10-09T11:21:56.747Z,14.20
2022-10-09T11:24:16.561Z,14.30
2022-10-09T11:26:36.766Z,14.30
2022-10-09T11:29:01.324Z,14.30
2022-10-09T11:31:41.710Z,14.40
2022-10-09T11:33:48.548Z,14.40
2022-10-09T11:35:55.888Z,14.30
2022-10-09T11:38:01.980Z,14.40
2022-10-09T11:40:06.121Z,14.40
2022-10-09T11:42:09.666Z,14.40
2022-10-09T11:44:20.263Z,14.50
2022-10-09T11:46:29.466Z,14.50
2022-10-09T11:48:47.157Z,14.50
2022-10-09T11:50:53.224Z,14.50
2022-10-09T11:52:58.274Z,14.50
2022-10-09T11:55:16.949Z,14.60
2022-10-09T11:57:27.038Z,14.60
2022-10-09T11:59:36.472Z,14.60
2022-10-09T12:01:39.824Z,14.60
2022-10-09T12:03:41.627Z,14.60
2022-10-09T12:05:44.964Z,14.70
2022-10-09T12:07:46.800Z,14.70
2022-10-09T12:09:48.888Z,14.70
2022-10-09T12:11:54.923Z,14.70
2022-10-09T12:14:04.406Z,14.80
2022-10-09T12:16:06.824Z,14.80
2022-10-09T12:18:17.077Z,14.80
2022-10-09T12:20:20.241Z,14.90
2022-10-09T12:22:25.161Z,14.90
2022-10-09T12:24:29.333Z,15.00
2022-10-09T12:26:31.213Z,15.00
2022-10-09T12:28:37.784Z,15.00
2022-10-09T12:30:45.037Z,15.10
2022-10-09T12:33:00.654Z,15.10
2022-10-09T12:35:10.936Z,15.10
2022-10-09T12:37:16.965Z,15.10
2022-10-09T12:39:22.509Z,15.10
2022-10-09T12:41:29.907Z,15.20
2022-10-09T12:43:32.592Z,15.20
2022-10-09T12:45:42.015Z,15.20
2022-10-09T12:47:43.945Z,15.20
2022-10-09T12:49:54.495Z,15.20
2022-10-09T12:51:56.906Z,15.30
2022-10-09T12:53:58.846Z,15.20
2022-10-09T12:56:00.941Z,15.20
2022-10-09T12:58:05.120Z,15.20
2022-10-09T13:00:07.546Z,15.20
2022-10-09T13:02:11.167Z,15.20
2022-10-09T13:04:45.206Z,15.20
2022-10-09T13:06:47.890Z,15.30
2022-10-09T13:08:54.095Z,15.30
2022-10-09T13:10:56.121Z,15.30
2022-10-09T13:12:58.790Z,15.30
2022-10-09T13:15:07.786Z,15.30
2022-10-09T13:17:25.219Z,15.20
2022-10-09T13:19:31.519Z,15.20
2022-10-09T13:21:35.256Z,15.20
2022-10-09T13:23:37.230Z,15.10
2022-10-09T13:25:40.376Z,15.10
2022-10-09T13:27:41.989Z,15.00
2022-10-09T13:29:43.774Z,15.00
2022-10-09T13:31:45.551Z,14.90
2022-10-09T13:33:47.635Z,14.90
2022-10-09T13:35:49.272Z,14.90
2022-10-09T13:37:51.199Z,14.80
2022-10-09T13:39:53.928Z,14.80
2022-10-09T13:41:57.656Z,14.80
2022-10-09T13:43:59.262Z,14.80
2022-10-09T13:46:00.905Z,14.80
2022-10-09T13:48:02.573Z,14.80
2022-10-09T13:50:04.396Z,14.70
2022-10-09T13:52:06.062Z,14.70
2022-10-09T13:54:07.899Z,14.70
2022-10-09T13:56:09.693Z,14.70
2022-10-09T13:58:11.336Z,14.60
2022-10-09T14:00:14.465Z,14.60
2022-10-09T14:02:16.180Z,14.60
2022-10-09T14:04:17.908Z,14.60
2022-10-09T14:06:19.649Z,14.60
2022-10-09T14:08:21.381Z,14.50
2022-10-09T14:10:23.964Z,14.50
2022-10-09T14:12:25.980Z,14.50
2022-10-09T14:14:27.612Z,14.50
2022-10-09T14:16:29.716Z,14.50
2022-10-09T14:18:31.328Z,14.50
2022-10-09T14:20:33.573Z,14.40
2022-10-09T14:22:35.220Z,14.40
2022-10-09T14:24:37.796Z,14.40
2022-10-09T14:26:39.535Z,14.40
2022-10-09T14:28:41.814Z,14.40
2022-10-09T14:30:43.647Z,14.40
2022-10-09T14:32:45.451Z,14.30
2022-10-09T14:34:47.124Z,14.30
2022-10-09T14:36:49.148Z,14.30
2022-10-09T14:38:50.835Z,14.20
2022-10-09T14:40:52.493Z,14.20
2022-10-09T14:42:54.110Z,14.20
2022-10-09T14:44:55.836Z,14.20
2022-10-09T14:46:58.749Z,14.20
2022-10-09T14:49:07.292Z,14.10
2022-10-09T14:51:11.753Z,14.20
2022-10-09T14:53:13.372Z,14.10
2022-10-09T14:55:15.008Z,14.10
2022-10-09T14:57:16.632Z,14.10
2022-10-09T14:59:18.290Z,14.10
2022-10-09T15:01:20.520Z,14.00
2022-10-09T15:03:22.410Z,14.00
2022-10-09T15:05:24.101Z,14.00
2022-10-09T15:07:28.034Z,14.00
2022-10-09T15:09:29.669Z,14.00
2022-10-09T15:11:31.442Z,14.00
2022-10-09T15:13:34.068Z,14.00
2022-10-09T15:15:35.818Z,14.00
2022-10-09T15:17:37.513Z,13.90
2022-10-09T15:19:39.153Z,13.90
2022-10-09T15:21:41.345Z,13.90
2022-10-09T15:23:43.345Z,13.80
2022-10-09T15:25:48.637Z,13.80
2022-10-09T15:27:54.505Z,13.80
2022-10-09T15:29:56.552Z,13.80
2022-10-09T15:31:58.193Z,13.80
2022-10-09T15:34:03.777Z,13.80
2022-10-09T15:36:05.435Z,13.70
2022-10-09T15:38:07.202Z,13.70
2022-10-09T15:40:09.206Z,13.70
2022-10-09T15:42:10.900Z,13.70
2022-10-09T15:44:17.173Z,13.70
2022-10-09T15:46:18.854Z,13.60
2022-10-09T15:48:22.233Z,13.70
2022-10-09T15:50:23.864Z,13.60
2022-10-09T15:52:25.582Z,13.60
2022-10-09T15:54:27.855Z,13.60
2022-10-09T15:56:30.059Z,13.60
2022-10-09T15:58:31.912Z,13.60
2022-10-09T16:00:37.829Z,13.50
2022-10-09T16:02:39.433Z,13.50
2022-10-09T16:04:41.163Z,13.50
2022-10-09T16:06:42.941Z,13.50
2022-10-09T16:08:46.004Z,13.40
2022-10-09T16:10:49.294Z,13.40
2022-10-09T16:12:51.409Z,13.40
2022-10-09T16:14:53.509Z,13.40
2022-10-09T16:16:55.601Z,13.40
2022-10-09T16:18:57.365Z,13.40
2022-10-09T16:21:04.090Z,13.30
2022-10-09T16:23:06.561Z,13.30
2022-10-09T16:25:08.385Z,13.30
2022-10-09T16:27:10.015Z,13.30
2022-10-09T16:29:11.791Z,13.20
2022-10-09T16:31:19.525Z,13.20
2022-10-09T16:33:21.607Z,13.20
2022-10-09T16:35:23.463Z,13.20
2022-10-09T16:37:25.159Z,13.10
2022-10-09T16:39:26.934Z,13.10
2022-10-09T16:41:28.656Z,13.10
2022-10-09T16:43:32.922Z,13.00
2022-10-09T16:45:34.596Z,13.00
2022-10-09T16:47:36.265Z,13.00
2022-10-09T16:49:37.905Z,13.00
2022-10-09T16:51:39.547Z,12.90
2022-10-09T16:53:41.658Z,12.90
2022-10-09T16:55:43.419Z,12.80
2022-10-09T16:57:45.072Z,12.80
2022-10-09T16:59:47.114Z,12.80
2022-10-09T17:01:49.584Z,12.80
2022-10-09T17:03:53.088Z,12.80
2022-10-09T17:05:54.841Z,12.70
2022-10-09T17:07:56.520Z,12.70
2022-10-09T17:09:58.177Z,12.70
2022-10-09T17:11:59.884Z,12.70
2022-10-09T17:14:01.662Z,12.60
2022-10-09T17:16:06.921Z,12.50
2022-10-09T17:18:08.958Z,12.50
2022-10-09T17:20:10.616Z,12.50
2022-10-09T17:22:12.300Z,12.40
2022-10-09T17:24:15.283Z,12.40
2022-10-09T17:26:18.161Z,12.40
2022-10-09T17:28:20.077Z,12.30
2022-10-09T17:30:22.037Z,12.30
2022-10-09T17:32:23.748Z,12.30
2022-10-09T17:34:25.536Z,12.20
2022-10-09T17:36:28.699Z,12.20
2022-10-09T17:38:30.362Z,12.20
2022-10-09T17:40:32.080Z,12.10
2022-10-09T17:42:33.771Z,12.10
2022-10-09T17:44:35.378Z,12.10
2022-10-09T17:46:37.008Z,12.00
2022-10-09T17:48:44.122Z,12.00
2022-10-09T17:50:50.246Z,11.90
2022-10-09T17:52:52.065Z,11.90
2022-10-09T17:54:54.250Z,11.90
2022-10-09T17:56:56.064Z,11.80
2022-10-09T17:59:01.406Z,11.70
2022-10-09T18:01:06.994Z,11.70
2022-10-09T18:03:08.766Z,11.70
2022-10-09T18:05:10.477Z,11.60
2022-10-09T18:07:12.194Z,11.60
2022-10-09T18:09:13.904Z,11.60
2022-10-09T18:11:16.533Z,11.50
2022-10-09T18:13:18.149Z,11.50
2022-10-09T18:15:19.847Z,11.50
2022-10-09T18:17:21.570Z,11.40
2022-10-09T18:19:23.477Z,11.40
2022-10-09T18:21:25.103Z,11.40
2022-10-09T18:23:26.789Z,11.30
2022-10-09T18:25:28.535Z,11.30
2022-10-09T18:27:30.341Z,11.30
2022-10-09T18:29:32.040Z,11.20
2022-10-09T18:31:33.965Z,11.20
2022-10-09T18:33:35.988Z,11.20
2022-10-09T18:35:38.365Z,11.10
2022-10-09T18:37:40.280Z,11.10
2022-10-09T18:39:41.963Z,11.10
2022-10-09T18:41:44.266Z,11.00
2022-10-09T18:43:46.193Z,11.00
2022-10-09T18:45:47.967Z,11.00
2022-10-09T18:47:50.411Z,11.00
2022-10-09T18:49:52.862Z,10.90
2022-10-09T18:51:54.858Z,10.90
2022-10-09T18:53:59.538Z,10.90
2022-10-09T18:56:01.230Z,10.90
2022-10-09T18:58:03.199Z,10.80
2022-10-09T19:00:05.209Z,10.80
2022-10-09T19:02:07.150Z,10.70
2022-10-09T19:04:08.839Z,10.70
2022-10-09T19:06:10.495Z,10.70
2022-10-09T19:08:12.211Z,10.70
2022-10-09T19:10:14.005Z,10.60
2022-10-09T19:12:19.252Z,10.70
2022-10-09T19:14:21.410Z,10.60
2022-10-09T19:16:24.297Z,10.50
2022-10-09T19:18:26.441Z,10.50
2022-10-09T19:20:28.981Z,10.50
2022-10-09T19:22:30.598Z,10.40
2022-10-09T19:24:34.300Z,10.40
2022-10-09T19:26:36.693Z,10.40
2022-10-09T19:28:39.270Z,10.40
2022-10-09T19:30:41.164Z,10.40
2022-10-09T19:32:42.828Z,10.30
2022-10-09T19:34:44.887Z,10.30
2022-10-09T19:36:47.371Z,10.30
2022-10-09T19:38:49.060Z,10.30
2022-10-09T19:40:50.708Z,10.20
2022-10-09T19:42:52.357Z,10.20
2022-10-09T19:44:54.039Z,10.20
2022-10-09T19:46:55.696Z,10.10
2022-10-09T19:48:57.496Z,10.10
2022-10-09T19:50:59.530Z,10.10
2022-10-09T19:53:03.333Z,10.10
2022-10-09T19:55:05.171Z,10.10
2022-10-09T19:57:06.895Z,10.10
2022-10-09T19:59:09.045Z,10.00
2022-10-09T20:01:11.327Z,10.00
2022-10-09T20:03:13.171Z,10.00
2022-10-09T20:05:14.884Z,10.00
2022-10-09T20:07:16.806Z,10.00
2022-10-09T20:09:20.721Z,10.00
2022-10-09T20:11:22.847Z,10.00
2022-10-09T20:13:24.507Z,10.00
2022-10-09T20:15:26.174Z,10.00
2022-10-09T20:17:27.982Z,10.00
2022-10-09T20:19:31.513Z,9.90
2022-10-09T20:21:33.767Z,9.90
2022-10-09T20:23:35.386Z,10.00
2022-10-09T20:25:37.041Z,9.90
2022-10-09T20:27:38.722Z,9.90
2022-10-09T20:29:40.423Z,9.90
2022-10-09T20:31:42.146Z,9.90
2022-10-09T20:33:44.449Z,9.90
2022-10-09T20:35:46.108Z,9.90
2022-10-09T20:37:47.841Z,9.90
2022-10-09T20:39:49.524Z,9.90
2022-10-09T20:41:52.049Z,9.90
2022-10-09T20:43:53.775Z,9.80
2022-10-09T20:45:55.385Z,9.80
2022-10-09T20:47:57.128Z,9.80
2022-10-09T20:49:58.775Z,9.80
2022-10-09T20:52:00.441Z,9.80
2022-10-09T20:54:02.520Z,9.80
2022-10-09T20:56:08.406Z,9.80
2022-10-09T20:58:10.046Z,9.80
2022-10-09T21:00:12.002Z,9.80
2022-10-09T21:02:14.270Z,9.80
2022-10-09T21:04:15.892Z,9.70
2022-10-09T21:06:18.769Z,9.70
2022-10-09T21:08:20.472Z,9.90
2022-10-09T21:10:22.144Z,9.70
2022-10-09T21:12:23.770Z,9.70
2022-10-09T21:14:25.384Z,9.70
2022-10-09T21:16:27.320Z,9.70
2022-10-09T21:18:28.944Z,9.70
2022-10-09T21:20:30.541Z,9.60
2022-10-09T21:22:32.244Z,9.60
2022-10-09T21:24:33.851Z,9.60
2022-10-09T21:26:35.853Z,9.60
2022-10-09T21:28:37.503Z,9.50
2022-10-09T21:30:41.559Z,9.50
2022-10-09T21:32:43.606Z,9.50
2022-10-09T21:34:45.742Z,9.50
2022-10-09T21:37:19.453Z,9.50
2022-10-09T21:39:10.639Z,9.50
2022-10-09T21:41:12.275Z,9.40
2022-10-09T21:43:13.910Z,9.40
2022-10-09T21:45:15.565Z,9.40
2022-10-09T21:47:18.762Z,9.40
2022-10-09T21:49:22.142Z,9.40
2022-10-09T21:51:23.817Z,9.30
2022-10-09T21:53:25.455Z,9.30
2022-10-09T21:55:27.100Z,9.30
2022-10-09T21:57:28.754Z,9.30
2022-10-09T21:59:30.382Z,9.30
2022-10-09T22:01:32.287Z,9.30
2022-10-09T22:03:35.092Z,9.20
2022-10-09T22:05:39.194Z,9.20
2022-10-09T22:07:40.892Z,9.20
2022-10-09T22:09:42.525Z,9.20
2022-10-09T22:11:44.952Z,9.20
2022-10-09T22:13:46.620Z,9.20
2022-10-09T22:15:51.135Z,9.20
2022-10-09T22:17:53.134Z,9.10
2022-10-09T22:19:54.765Z,9.10
2022-10-09T22:21:56.409Z,9.10
2022-10-09T22:23:59.383Z,9.10
2022-10-09T22:26:02.989Z,9.10
2022-10-09T22:28:05.442Z,9.10
2022-10-09T22:30:07.512Z,9.10
2022-10-09T22:32:10.389Z,9.00
2022-10-09T22:34:12.015Z,9.00
2022-10-09T22:36:17.357Z,9.10
2022-10-09T22:38:19.152Z,9.00
2022-10-09T22:40:21.296Z,8.90
2022-10-09T22:42:22.923Z,8.90
2022-10-09T22:44:24.596Z,8.90
2022-10-09T22:46:33.795Z,8.90
2022-10-09T22:48:35.567Z,8.90
2022-10-09T22:50:37.212Z,8.90
2022-10-09T22:52:38.849Z,8.90
2022-10-09T22:54:40.517Z,8.90
2022-10-09T22:56:43.246Z,8.90
2022-10-09T22:58:45.404Z,8.90
2022-10-09T23:00:47.150Z,8.90
2022-10-09T23:02:49.058Z,8.90
2022-10-09T23:04:50.876Z,9.00
2022-10-09T23:06:53.798Z,9.00
2022-10-09T23:08:55.794Z,9.00
2022-10-09T23:10:57.438Z,9.00
2022-10-09T23:12:59.119Z,9.10
2022-10-09T23:15:00.774Z,9.10
2022-10-09T23:17:02.457Z,9.20
2022-10-09T23:19:06.960Z,9.20
2022-10-09T23:21:10.957Z,9.20
2022-10-09T23:23:12.584Z,9.30
2022-10-09T23:25:14.229Z,9.30
2022-10-09T23:27:15.892Z,9.30
2022-10-09T23:29:18.395Z,9.30
2022-10-09T23:31:20.416Z,9.20
2022-10-09T23:33:22.035Z,9.40
2022-10-09T23:35:23.678Z,9.40
2022-10-09T23:37:25.327Z,9.40
2022-10-09T23:39:26.931Z,9.40
2022-10-09T23:41:29.081Z,9.40
2022-10-09T23:43:31.418Z,9.50
2022-10-09T23:45:33.155Z,9.50
2022-10-09T23:47:34.830Z,9.50
2022-10-09T23:49:36.880Z,9.50
2022-10-09T23:51:38.510Z,9.50
2022-10-09T23:53:40.205Z,9.50
2022-10-09T23:55:41.814Z,9.50
2022-10-09T23:57:43.419Z,9.50
2022-10-09T23:59:45.038Z,9.60
